Virtual LH

Virtual LH. There's no better way to fly
Since 2013.



 METAR AND TAF INFORMATION
METAR FOR SUMU
ADDS - METARS form results

(1211 UTC 18 October 2018)
Data provider http://aviationweather.gov/metar/data/
 
METAR text: SUMU 181200Z 17011KT 9999 BKN003 OVC010 17/16 Q1015 NOSIG
Conditions at: SUMU (CARRASCO (CIV/MI, UY) observed 1200 UTC 18 October 2018
Temperature: 17.0°C (63°F)
Dewpoint: 16.0°C (61°F) [RH = 94%]
Pressure (altimeter): 29.97 inches Hg (1015.0 mb)
Winds: from the S (170 degrees) at 13 MPH (11 knots; 5.7 m/s)
Visibility: 6 or more miles (10+ km)
Ceiling: 300 feet AGL
Clouds: broken clouds at 300 feet AGL
overcast cloud deck at 1000 feet AGL
Weather: no significant weather observed at this time

METAR text: SUMU 181145Z 19012KT 5000 BR BKN003 OVC015 17/16 Q1016
Conditions at: SUMU (CARRASCO (CIV/MI, UY) observed 1145 UTC 18 October 2018
Temperature: 17.0°C (63°F)
Dewpoint: 16.0°C (61°F) [RH = 94%]
Pressure (altimeter): 30.00 inches Hg (1016.0 mb)
Winds: from the S (190 degrees) at 14 MPH (12 knots; 6.2 m/s)
Visibility: 3 miles ( 5 km)
Ceiling: 300 feet AGL
Clouds: broken clouds at 300 feet AGL
overcast cloud deck at 1500 feet AGL
Weather: BR  (mist)

METAR text: SUMU 181135Z 20010KT 2500 BR OVC002 17/16 Q1016
Conditions at: SUMU (CARRASCO (CIV/MI, UY) observed 1135 UTC 18 October 2018
Temperature: 17.0°C (63°F)
Dewpoint: 16.0°C (61°F) [RH = 94%]
Pressure (altimeter): 30.00 inches Hg (1016.0 mb)
Winds: from the SSW (200 degrees) at 12 MPH (10 knots; 5.1 m/s)
Visibility: 1.55 miles (2.49 km)
Ceiling: 200 feet AGL
Clouds: overcast cloud deck at 200 feet AGL
Weather: BR  (mist)

METAR text: SUMU 181112Z 20012KT 1200 R/24 1500 R/19 P2000 BR OVC002 17/16 Q1015
Conditions at: SUMU (CARRASCO (CIV/MI, UY) observed 1112 UTC 18 October 2018
Temperature: 17.0°C (63°F)
Dewpoint: 16.0°C (61°F) [RH = 94%]
Pressure (altimeter): 29.97 inches Hg (1015.0 mb)
Winds: from the SSW (200 degrees) at 14 MPH (12 knots; 6.2 m/s)
Visibility: 0.75 miles (1.21 km)
Ceiling: 200 feet AGL
Clouds: overcast cloud deck at 200 feet AGL
Weather: BR  (mist)

Forecast for: SUMU (CARRASCO (CIV/MI, UY)
Text: TAF SUMU 181140Z 1812/1912 17015KT 5000 BR BKN008 TX19/1818Z TN12/1910Z
Forecast period: 1200 to 2000 UTC 18 October 2018
Forecast type: FROM: standard forecast or significant change
Winds: from the S (170 degrees) at 17 MPH (15 knots; 7.7 m/s)
Visibility: 3 miles (5 km)
Ceiling: 800 feet AGL
Clouds: broken clouds at 800 feet AGL
Weather: BR  (mist)
Text: TEMPO 1812/1818 16015G25KT 2000 RA DZ OVC002
Forecast period: 1200 to 1800 UTC 18 October 2018
Forecast type: TEMPORARY: The following changes expected for less than half the time period
Winds: from the SSE (160 degrees) at 17 MPH (15 knots; 7.7 m/s)
gusting to 29 MPH (25 knots; 12.9 m/s)
Visibility: 1.24 miles (2.00 km)
Ceiling: 200 feet AGL
Clouds: overcast cloud deck at 200 feet AGL
Weather: RA DZ  (moderate rain, moderate drizzle)
Text: BECMG 1820/1822 9999 SCT020
Forecast period: 2000 UTC 18 October 2018 to 1200 UTC 19 October 2018
Forecast type: BECOMING: Conditions expected to become as follows by 2200 UTC 18 October 2018
Winds: from the S (170 degrees) at 17 MPH (15 knots; 7.7 m/s)
Visibility: 6 or more miles 10+ km)
Ceiling: at least 12,000 feet AGL
Clouds: scattered clouds at 2000 feet AGL
Weather: BR  (mist)

 AIRPORT MAP

 RUNWAY INFORMATION
Runway 01 Runway length 7382 ft Runway width 148 ft
Runway elevation 62 ft Runway displaced threshold 0 ft Runway heading 359
Runway 19 Runway length 7382 ft Runway width 148 ft
Runway elevation 51 ft Runway displaced threshold 0 ft Runway heading 179
Runway 06 Runway length 10499 ft Runway width 148 ft
Runway elevation 49 ft Runway displaced threshold 1150 ft Runway heading 53
Runway 24 Runway length 10499 ft Runway width 148 ft
Runway elevation 105 ft Runway displaced threshold 490 ft Runway heading 233
Runway 10 Runway length 5577 ft Runway width 148 ft
Runway elevation 59 ft Runway displaced threshold 0 ft Runway heading 91
Runway 28 Runway length 5577 ft Runway width 148 ft
Runway elevation 75 ft Runway displaced threshold 0 ft Runway heading 271

 AIRPORT FREQUENCIES
Type APP Name APP Frequency 119.2 MHZ
Type MISC Name CXK CARRAS Frequency 545.1 MHZ
Type PTD Name A/F CARRAS Frequency 831.5 MHZ
Type RDO Name RDO Frequency 553.5 MHZ
Type TWR Name TWR Frequency 118.1 MHZ

 AIRPORT NEAR NAVIGATION AIDS
Type NDB Name Carrasco Frequency 260 KHZ
Type NDB Name Carrasco Frequency 280 KHZ
Type NDB Name Carrasco Frequency 380 KHZ
Type VOR-DME Name Carrasco Frequency 116900 KHZ